createdAt,value
2023-01-20T00:01:15.947Z,63.80
2023-01-20T00:05:24.179Z,59.60
2023-01-20T00:09:33.550Z,58.10
2023-01-20T00:13:41.920Z,60.80
2023-01-20T00:17:50.474Z,62.40
2023-01-20T00:21:58.162Z,55.90
2023-01-20T00:26:09.744Z,64.80
2023-01-20T00:30:19.211Z,63.40
2023-01-20T00:34:27.033Z,57.50
2023-01-20T00:38:34.836Z,68.20
2023-01-20T00:42:42.838Z,67.40
2023-01-20T00:46:50.796Z,66.20
2023-01-20T00:50:58.781Z,65.70
2023-01-20T00:55:07.606Z,57.20
2023-01-20T00:59:16.750Z,54.00
2023-01-20T01:03:25.584Z,53.20
2023-01-20T01:07:33.651Z,45.20
2023-01-20T01:11:41.811Z,38.60
2023-01-20T01:15:53.162Z,36.80
2023-01-20T01:20:01.463Z,34.60
2023-01-20T01:24:10.101Z,46.30
2023-01-20T01:28:18.042Z,46.70
2023-01-20T01:32:25.960Z,38.50
2023-01-20T01:36:34.053Z,37.50
2023-01-20T01:40:42.420Z,33.20
2023-01-20T01:45:20.593Z,39.60
2023-01-20T01:49:30.913Z,37.20
2023-01-20T01:53:43.828Z,34.20
2023-01-20T01:57:52.896Z,37.10
2023-01-20T02:02:01.202Z,37.80
2023-01-20T02:06:10.951Z,37.30
2023-01-20T02:10:18.571Z,44.40
2023-01-20T02:14:32.329Z,48.40
2023-01-20T02:18:48.778Z,52.20
2023-01-20T02:23:00.584Z,56.80
2023-01-20T02:27:13.810Z,53.10
2023-01-20T02:31:53.857Z,49.00
2023-01-20T02:36:04.591Z,56.80
2023-01-20T02:40:20.790Z,49.10
2023-01-20T02:44:40.217Z,46.80
2023-01-20T02:48:52.347Z,45.60
2023-01-20T02:53:02.024Z,64.10
2023-01-20T02:57:11.726Z,63.30
2023-01-20T03:01:22.494Z,55.50
2023-01-20T03:05:32.827Z,45.60
2023-01-20T03:09:44.754Z,42.10
2023-01-20T03:13:57.674Z,38.20
2023-01-20T03:18:06.702Z,43.10
2023-01-20T03:22:14.567Z,41.20
2023-01-20T03:26:24.338Z,43.50
2023-01-20T03:30:32.348Z,60.10
2023-01-20T03:34:43.518Z,54.70
2023-01-20T03:38:52.105Z,40.00
2023-01-20T03:43:06.128Z,39.20
2023-01-20T03:47:22.616Z,36.70
2023-01-20T03:51:34.551Z,34.80
2023-01-20T03:55:46.929Z,30.80
2023-01-20T03:59:55.943Z,32.20
2023-01-20T04:04:09.926Z,27.90
2023-01-20T04:08:19.561Z,45.10
2023-01-20T04:12:27.152Z,48.20
2023-01-20T04:16:35.363Z,36.60
2023-01-20T04:20:44.196Z,33.30
2023-01-20T04:24:55.861Z,32.80
2023-01-20T04:29:11.922Z,35.80
2023-01-20T04:33:21.271Z,38.70
2023-01-20T04:37:31.059Z,40.50
2023-01-20T04:41:39.358Z,58.30
2023-01-20T04:45:47.804Z,54.70
2023-01-20T04:49:55.222Z,50.00
2023-01-20T04:54:03.046Z,61.70
2023-01-20T04:58:11.742Z,133.80
2023-01-20T05:02:21.329Z,159.90
2023-01-20T05:06:29.729Z,147.40
2023-01-20T05:10:38.318Z,117.00
2023-01-20T05:14:46.824Z,80.60
2023-01-20T05:18:55.629Z,77.70
2023-01-20T05:23:03.211Z,71.40
2023-01-20T05:27:10.859Z,57.10
2023-01-20T05:31:21.453Z,51.40
2023-01-20T05:35:29.678Z,53.70
2023-01-20T05:39:37.264Z,81.40
2023-01-20T05:43:44.749Z,80.50
2023-01-20T05:47:58.028Z,64.20
2023-01-20T05:52:06.411Z,49.20
2023-01-20T05:56:17.091Z,39.20
2023-01-20T06:00:27.225Z,38.60
2023-01-20T06:04:35.070Z,38.90
2023-01-20T06:08:43.347Z,33.30
2023-01-20T06:12:56.450Z,33.20
2023-01-20T06:17:04.337Z,40.10
2023-01-20T06:21:12.402Z,58.50
2023-01-20T06:25:20.850Z,78.80
2023-01-20T06:29:28.405Z,45.30
2023-01-20T06:33:39.663Z,58.20
2023-01-20T06:37:47.824Z,49.30
2023-01-20T06:41:58.268Z,50.90
2023-01-20T06:46:08.545Z,53.70
2023-01-20T06:50:16.830Z,44.30
2023-01-20T06:54:27.601Z,50.10
2023-01-20T06:58:36.590Z,51.10
2023-01-20T07:02:44.501Z,46.90
2023-01-20T07:06:52.572Z,56.40
2023-01-20T07:11:00.447Z,70.00
2023-01-20T07:15:10.551Z,88.30
2023-01-20T07:19:17.903Z,74.30
2023-01-20T07:23:26.170Z,67.20
2023-01-20T07:27:34.222Z,71.20
2023-01-20T07:31:41.865Z,72.20
2023-01-20T07:35:54.822Z,70.50
2023-01-20T07:40:03.360Z,59.70
2023-01-20T07:44:12.348Z,53.40
2023-01-20T07:48:20.435Z,48.40
2023-01-20T07:52:28.083Z,58.70
2023-01-20T07:56:38.110Z,63.10
2023-01-20T08:00:49.202Z,67.00
2023-01-20T08:04:57.207Z,65.20
2023-01-20T08:09:05.747Z,70.80
2023-01-20T08:13:14.691Z,62.10
2023-01-20T08:17:22.660Z,53.20
2023-01-20T08:21:32.550Z,55.80
2023-01-20T08:25:40.686Z,48.50
2023-01-20T08:29:49.810Z,48.50
2023-01-20T08:33:58.544Z,67.20
2023-01-20T08:38:07.999Z,74.00
2023-01-20T08:42:16.898Z,75.00
2023-01-20T08:46:25.079Z,65.40
2023-01-20T08:50:34.485Z,50.60
2023-01-20T08:54:42.261Z,41.70
2023-01-20T08:58:52.404Z,44.80
2023-01-20T09:03:00.531Z,42.70
2023-01-20T09:07:11.591Z,45.00
2023-01-20T09:11:22.695Z,47.00
2023-01-20T09:15:30.635Z,38.10
2023-01-20T09:19:39.434Z,53.20
2023-01-20T09:23:48.387Z,53.70
2023-01-20T09:27:56.193Z,65.40
2023-01-20T09:32:03.864Z,57.40
2023-01-20T09:36:13.509Z,45.90
2023-01-20T09:40:43.305Z,43.50
2023-01-20T09:44:55.237Z,46.10
2023-01-20T09:49:28.096Z,44.10
2023-01-20T09:53:46.633Z,40.90
2023-01-20T09:57:59.534Z,39.00
2023-01-20T10:02:13.147Z,34.30
2023-01-20T10:06:26.920Z,36.00
2023-01-20T10:10:38.823Z,47.40
2023-01-20T10:14:49.210Z,55.90
2023-01-20T10:18:59.352Z,40.70
2023-01-20T10:23:11.926Z,43.10
2023-01-20T10:27:19.519Z,41.10
2023-01-20T10:31:30.131Z,37.90
2023-01-20T10:35:41.993Z,39.50
2023-01-20T10:39:53.689Z,38.70
2023-01-20T10:44:02.716Z,29.20
2023-01-20T10:48:20.001Z,30.70
2023-01-20T10:52:38.580Z,37.60
2023-01-20T10:56:54.062Z,46.20
2023-01-20T11:01:05.291Z,40.70
2023-01-20T11:05:20.195Z,34.10
2023-01-20T11:09:32.198Z,31.50
2023-01-20T11:13:39.799Z,25.30
2023-01-20T11:17:49.397Z,30.10
2023-01-20T11:21:57.346Z,25.90
2023-01-20T11:26:10.242Z,26.30
2023-01-20T11:30:28.353Z,27.20
2023-01-20T11:34:38.996Z,36.90
2023-01-20T11:38:48.105Z,38.90
2023-01-20T11:42:56.949Z,35.80
2023-01-20T11:47:23.253Z,30.10
2023-01-20T11:51:31.487Z,28.00
2023-01-20T11:55:48.666Z,32.60
2023-01-20T11:59:56.568Z,31.80
2023-01-20T12:04:23.476Z,28.00
2023-01-20T12:08:35.834Z,29.70
2023-01-20T12:12:48.427Z,25.80
2023-01-20T12:17:08.800Z,27.40
2023-01-20T12:21:17.877Z,27.10
2023-01-20T12:25:28.081Z,30.70
2023-01-20T12:29:44.755Z,31.90
2023-01-20T12:34:00.447Z,24.80
2023-01-20T12:38:10.259Z,20.00
2023-01-20T12:42:53.848Z,22.40
2023-01-20T12:47:08.714Z,20.50
2023-01-20T12:51:24.194Z,21.60
2023-01-20T12:55:41.901Z,22.30
2023-01-20T13:00:00.419Z,21.60
2023-01-20T13:04:53.468Z,21.10
2023-01-20T13:09:06.179Z,20.00
2023-01-20T13:13:24.472Z,23.80
2023-01-20T13:17:38.298Z,29.50
2023-01-20T13:21:56.522Z,33.10
2023-01-20T13:26:12.996Z,23.80
2023-01-20T13:30:44.512Z,22.20
2023-01-20T13:34:52.574Z,28.20
2023-01-20T13:39:27.317Z,26.30
2023-01-20T13:44:01.551Z,30.90
2023-01-20T13:48:25.562Z,38.50
2023-01-20T13:53:19.767Z,28.30
2023-01-20T13:57:47.761Z,25.50
2023-01-20T14:01:55.825Z,26.60
2023-01-20T14:06:06.275Z,30.30
2023-01-20T14:10:15.899Z,27.80
2023-01-20T14:14:25.847Z,36.40
2023-01-20T14:18:34.208Z,40.10
2023-01-20T14:22:42.330Z,40.80
2023-01-20T14:26:50.386Z,35.10
2023-01-20T14:31:19.626Z,33.60
2023-01-20T14:35:31.307Z,32.50
2023-01-20T14:39:40.560Z,33.60
2023-01-20T14:43:49.560Z,33.60
2023-01-20T14:47:57.854Z,47.80
2023-01-20T14:52:05.790Z,46.70
2023-01-20T14:56:21.556Z,45.90
2023-01-20T15:00:30.572Z,40.30
2023-01-20T15:04:41.495Z,36.20
2023-01-20T15:09:05.130Z,31.90
2023-01-20T15:13:27.728Z,29.70
2023-01-20T15:17:35.230Z,37.60
2023-01-20T15:21:44.509Z,46.20
2023-01-20T15:25:54.203Z,44.40
2023-01-20T15:30:24.357Z,35.60
2023-01-20T15:34:32.172Z,34.10
2023-01-20T15:38:40.321Z,33.70
2023-01-20T15:42:48.429Z,36.80
2023-01-20T15:46:57.658Z,49.30
2023-01-20T15:51:07.465Z,53.70
2023-01-20T15:55:20.136Z,50.90
2023-01-20T15:59:30.684Z,38.60
2023-01-20T16:03:38.996Z,37.10
2023-01-20T16:07:47.973Z,39.40
2023-01-20T16:11:55.809Z,35.10
2023-01-20T16:16:04.146Z,37.70
2023-01-20T16:20:21.544Z,34.70
2023-01-20T16:24:29.425Z,40.90
2023-01-20T16:28:38.120Z,31.70
2023-01-20T16:32:47.419Z,35.60
2023-01-20T16:36:55.143Z,33.70
2023-01-20T16:41:07.997Z,39.70
2023-01-20T16:45:31.567Z,42.00
2023-01-20T16:49:40.290Z,40.70
2023-01-20T16:53:48.639Z,35.60
2023-01-20T16:57:56.483Z,37.00
2023-01-20T17:02:04.550Z,35.80
2023-01-20T17:06:17.853Z,38.10
2023-01-20T17:10:26.576Z,40.00
2023-01-20T17:14:35.145Z,35.60
2023-01-20T17:18:45.946Z,36.90
2023-01-20T17:22:55.974Z,42.20
2023-01-20T17:27:03.992Z,45.70
2023-01-20T17:31:15.020Z,38.90
2023-01-20T17:35:22.752Z,31.60
2023-01-20T17:39:39.666Z,44.80
2023-01-20T17:43:51.594Z,53.10
2023-01-20T17:47:59.210Z,46.00
2023-01-20T17:52:07.218Z,51.20
2023-01-20T17:56:15.608Z,37.90
2023-01-20T18:00:24.753Z,39.90
2023-01-20T18:04:32.877Z,45.90
2023-01-20T18:08:41.216Z,55.40
2023-01-20T18:12:49.247Z,53.80
2023-01-20T18:16:57.654Z,53.10
2023-01-20T18:21:13.527Z,49.30
2023-01-20T18:25:21.493Z,48.90
2023-01-20T18:29:30.532Z,45.90
2023-01-20T18:33:40.026Z,63.70
2023-01-20T18:37:48.107Z,61.40
2023-01-20T18:41:56.190Z,51.00
2023-01-20T18:46:04.504Z,54.80
2023-01-20T18:50:13.996Z,55.50
2023-01-20T18:54:22.291Z,58.10
2023-01-20T18:58:31.883Z,59.10
2023-01-20T19:02:41.340Z,48.50
2023-01-20T19:06:49.487Z,55.00
2023-01-20T19:10:57.384Z,67.40
2023-01-20T19:15:05.151Z,48.80
2023-01-20T19:19:13.325Z,43.70
2023-01-20T19:23:21.630Z,55.30
2023-01-20T19:27:30.014Z,58.90
2023-01-20T19:31:40.284Z,52.50
2023-01-20T19:35:48.181Z,55.30
2023-01-20T19:39:57.000Z,55.80
2023-01-20T19:44:07.167Z,49.90
2023-01-20T19:48:14.932Z,61.10
2023-01-20T19:52:22.577Z,58.20
2023-01-20T19:56:32.584Z,60.70
2023-01-20T20:00:40.355Z,51.00
2023-01-20T20:04:48.644Z,46.80
2023-01-20T20:08:57.557Z,50.00
2023-01-20T20:13:05.892Z,65.50
2023-01-20T20:17:14.084Z,54.10
2023-01-20T20:21:22.614Z,57.90
2023-01-20T20:25:30.817Z,63.40
2023-01-20T20:29:38.656Z,59.60
2023-01-20T20:33:47.137Z,82.90
2023-01-20T20:37:55.003Z,53.70
2023-01-20T20:42:02.809Z,61.30
2023-01-20T20:46:11.161Z,64.00
2023-01-20T20:50:19.914Z,61.20
2023-01-20T20:54:28.509Z,57.80
2023-01-20T20:58:36.658Z,46.10
2023-01-20T21:02:44.587Z,69.30
2023-01-20T21:06:52.912Z,66.30
2023-01-20T21:11:03.437Z,59.80
2023-01-20T21:15:13.828Z,78.50
2023-01-20T21:19:21.838Z,64.40
2023-01-20T21:23:30.843Z,59.70
2023-01-20T21:27:39.625Z,79.60
2023-01-20T21:31:47.560Z,71.30
2023-01-20T21:35:55.684Z,61.70
2023-01-20T21:40:04.199Z,57.90
2023-01-20T21:44:32.518Z,69.10
2023-01-20T21:48:57.630Z,54.40
2023-01-20T21:53:06.031Z,66.40
2023-01-20T21:57:15.243Z,70.90
2023-01-20T22:01:22.867Z,69.90
2023-01-20T22:05:30.875Z,87.20
2023-01-20T22:09:38.908Z,73.30
2023-01-20T22:13:47.010Z,68.90
2023-01-20T22:17:55.984Z,76.60
2023-01-20T22:22:04.596Z,71.30
2023-01-20T22:26:12.589Z,69.60
2023-01-20T22:30:21.134Z,63.70
2023-01-20T22:34:29.447Z,74.30
2023-01-20T22:38:37.174Z,60.00
2023-01-20T22:42:46.014Z,64.40
2023-01-20T22:46:53.960Z,62.40
2023-01-20T22:51:08.349Z,67.70
2023-01-20T22:55:16.818Z,60.00
2023-01-20T22:59:24.021Z,57.30
2023-01-20T23:03:31.983Z,55.90
2023-01-20T23:07:40.815Z,44.60
2023-01-20T23:11:48.892Z,58.40
2023-01-20T23:15:56.970Z,65.10
2023-01-20T23:20:05.161Z,59.10
2023-01-20T23:24:12.876Z,59.90
2023-01-20T23:28:20.182Z,53.70
2023-01-20T23:32:28.145Z,48.40
2023-01-20T23:36:36.703Z,56.40
2023-01-20T23:40:44.204Z,60.40
2023-01-20T23:44:52.184Z,54.70
2023-01-20T23:49:00.288Z,49.40
2023-01-20T23:53:07.977Z,59.50
2023-01-20T23:57:15.681Z,51.40
